CheckWX is a tool to help pilots better visualize weather data.  It is not intended as a substitute for an official pre-flight weather briefing.

04:48:27 UTC

KMEZ METAR
Mena Intermountain Municipal Airport
Mena, Arkansas, USA
Current

33 mins ago

KMEZ 180415Z AUTO 13004KT 10SM CLR 30/22 A2993 RMK AO2
Observed
Aug-18 @ 04:15 UTC
Wind
  • 130° at 4 KTS
Visibility
10 SM
Flight Rules
VFR
Cloud Levels
  • Clear skies
Temperature
30°C / 86°F
Dewpoint
22°C / 72°F
Heat Index
33°C / 92°F
Humidity
62%
Altimeter
29.93" Hg
Pressure
1013.52 hPa
Previous

53 mins ago

KMEZ 180355Z AUTO 14006KT 10SM SCT050 BKN065 31/22 A2992 RMK AO2
Observed
Aug-18 @ 03:55 UTC
Wind
  • 140° at 6 KTS
Visibility
10 SM
Flight Rules
VFR
Cloud Levels
  • Scattered at 5,000' AGL
  • Broken at 6,500' AGL
Temperature
31°C / 88°F
Dewpoint
22°C / 72°F
Heat Index
35°C / 95°F
Humidity
59%
Altimeter
29.92" Hg
Pressure
1013.22 hPa
Previous

1 hour ago

KMEZ 180335Z AUTO 12004KT 10SM BKN050 BKN065 30/22 A2992 RMK AO2
Observed
Aug-18 @ 03:35 UTC
Wind
  • 120° at 4 KTS
Visibility
10 SM
Flight Rules
VFR
Cloud Levels
  • Broken at 5,000' AGL
  • Broken at 6,500' AGL
Temperature
30°C / 86°F
Dewpoint
22°C / 72°F
Heat Index
33°C / 92°F
Humidity
62%
Altimeter
29.92" Hg
Pressure
1013.22 hPa